createdAt,value
2022-08-14T00:09:33.005Z,27.00
2022-08-14T00:19:36.951Z,27.10
2022-08-14T00:29:42.977Z,27.40
2022-08-14T00:39:46.973Z,27.40
2022-08-14T00:49:53.162Z,27.20
2022-08-14T00:59:57.621Z,27.30
2022-08-14T01:10:06.186Z,27.00
2022-08-14T01:20:29.947Z,26.80
2022-08-14T01:30:39.890Z,26.60
2022-08-14T01:40:43.845Z,26.10
2022-08-14T01:50:49.726Z,25.90
2022-08-14T02:00:56.551Z,25.90
2022-08-14T02:11:22.583Z,25.90
2022-08-14T02:21:27.638Z,25.80
2022-08-14T02:31:43.495Z,25.60
2022-08-14T02:41:52.687Z,25.50
2022-08-14T02:52:03.576Z,25.60
2022-08-14T03:02:48.738Z,25.80
2022-08-14T03:12:52.436Z,26.00
2022-08-14T03:22:56.339Z,26.50
2022-08-14T03:33:01.565Z,26.70
2022-08-14T03:43:06.297Z,26.50
2022-08-14T03:53:14.368Z,26.20
2022-08-14T04:03:24.148Z,26.20
2022-08-14T04:13:31.676Z,25.90
2022-08-14T04:23:39.705Z,25.70
2022-08-14T04:33:45.027Z,25.80
2022-08-14T04:43:48.872Z,27.10
2022-08-14T04:53:57.911Z,27.40
2022-08-14T05:04:02.302Z,28.20
2022-08-14T05:14:16.620Z,28.40
2022-08-14T05:24:31.334Z,28.90
2022-08-14T05:34:37.466Z,28.40
2022-08-14T05:44:41.273Z,28.80
2022-08-14T05:54:51.319Z,28.60
2022-08-14T06:04:55.139Z,28.40
2022-08-14T06:15:04.224Z,28.50
2022-08-14T06:25:15.990Z,29.20
2022-08-14T06:35:23.351Z,29.60
2022-08-14T06:45:27.171Z,29.50
2022-08-14T06:55:32.501Z,30.60
2022-08-14T07:05:57.715Z,30.90
2022-08-14T07:16:06.134Z,30.90
2022-08-14T07:26:10.925Z,30.60
2022-08-14T07:36:27.144Z,29.80
2022-08-14T07:46:34.473Z,30.60
2022-08-14T07:56:46.709Z,31.60
2022-08-14T08:06:52.925Z,31.40
2022-08-14T08:16:58.893Z,31.70
2022-08-14T08:27:02.974Z,31.00
2022-08-14T08:37:08.803Z,31.80
2022-08-14T08:47:13.032Z,31.80
2022-08-14T08:57:21.336Z,31.10
2022-08-14T09:07:28.039Z,31.60
2022-08-14T09:17:34.181Z,32.30
2022-08-14T09:27:39.700Z,33.10
2022-08-14T09:37:56.574Z,32.90
2022-08-14T09:48:00.693Z,33.30
2022-08-14T09:58:19.986Z,33.70
2022-08-14T10:08:27.126Z,33.70
2022-08-14T10:18:34.109Z,34.50
2022-08-14T10:29:18.725Z,35.50
2022-08-14T10:39:16.377Z,35.50
2022-08-14T10:49:22.015Z,33.20
2022-08-14T10:59:30.818Z,32.30
2022-08-14T11:09:35.218Z,32.00
2022-08-14T11:19:40.949Z,32.50
2022-08-14T11:29:45.638Z,32.60
2022-08-14T11:39:58.814Z,33.00
2022-08-14T11:50:13.361Z,33.60
2022-08-14T12:00:19.573Z,34.30
2022-08-14T12:10:27.029Z,34.70
2022-08-14T12:20:45.742Z,35.10
2022-08-14T12:30:56.723Z,35.60
2022-08-14T12:41:08.018Z,35.60
2022-08-14T12:51:19.894Z,36.50
2022-08-14T13:01:29.693Z,37.30
2022-08-14T13:11:40.877Z,37.90
2022-08-14T13:22:05.785Z,38.10
2022-08-14T13:32:11.808Z,38.10
2022-08-14T13:42:21.272Z,37.40
2022-08-14T13:52:53.465Z,37.40
2022-08-14T14:02:54.435Z,38.60
2022-08-14T14:12:58.709Z,37.50
2022-08-14T14:23:11.667Z,37.30
2022-08-14T14:33:42.420Z,37.70
2022-08-14T14:43:45.214Z,35.20
2022-08-14T14:53:48.983Z,35.20
2022-08-14T15:03:54.739Z,35.10
2022-08-14T15:14:01.029Z,34.90
2022-08-14T15:24:06.585Z,34.10
2022-08-14T15:34:46.169Z,34.10
2022-08-14T15:44:44.895Z,33.60
2022-08-14T15:55:04.373Z,32.00
2022-08-14T16:05:10.032Z,32.30
2022-08-14T16:15:14.273Z,32.10
2022-08-14T16:25:34.732Z,31.00
2022-08-14T16:35:42.526Z,30.60
2022-08-14T16:46:01.560Z,30.70
2022-08-14T16:56:23.178Z,30.90
2022-08-14T17:06:45.448Z,30.80
2022-08-14T17:16:55.877Z,30.50
2022-08-14T17:27:03.934Z,30.30
2022-08-14T17:37:08.290Z,31.50
2022-08-14T17:47:29.539Z,31.50
2022-08-14T17:57:46.318Z,30.10
2022-08-14T18:08:31.653Z,30.00
2022-08-14T18:18:16.285Z,29.40
2022-08-14T18:28:48.661Z,29.20
2022-08-14T18:39:31.799Z,29.20
2022-08-14T18:50:27.922Z,28.80
2022-08-14T19:00:58.946Z,28.60
2022-08-14T19:11:05.049Z,28.40
2022-08-14T19:21:25.202Z,28.20
2022-08-14T19:31:42.228Z,28.20
2022-08-14T19:42:00.701Z,28.10
2022-08-14T19:52:24.979Z,28.10
2022-08-14T20:02:30.525Z,27.80
2022-08-14T20:12:57.484Z,27.50
2022-08-14T20:23:11.780Z,27.60
2022-08-14T20:33:16.967Z,27.50
2022-08-14T20:43:42.444Z,27.30
2022-08-14T20:53:57.781Z,27.40
2022-08-14T21:04:05.133Z,27.40
2022-08-14T21:14:21.000Z,27.10
2022-08-14T21:24:39.915Z,27.30
2022-08-14T21:34:55.277Z,27.10
2022-08-14T21:45:00.717Z,27.20
2022-08-14T21:55:10.430Z,27.20
2022-08-14T22:05:18.857Z,27.10
2022-08-14T22:15:22.709Z,27.00
2022-08-14T22:25:33.041Z,26.90
2022-08-14T22:35:38.320Z,26.80
2022-08-14T22:45:55.056Z,26.80
2022-08-14T22:55:59.981Z,26.60
2022-08-14T23:07:02.165Z,26.50
2022-08-14T23:16:32.637Z,26.30
2022-08-14T23:26:49.808Z,25.90
2022-08-14T23:36:59.136Z,25.80
2022-08-14T23:47:25.285Z,25.90
2022-08-14T23:57:30.925Z,25.70
